VTD146 UGKO-UGSB
Flight info
| Callsign | VTD146 |
|---|---|
| Flight time | 0h 28m |
| Altitude | 10000 |
| Route | KUSSA |
| Aircraft | DA42/L-SDEFGRY/C |
Departure
| Time | 2026-04-28 12:38 |
|---|---|
| Airport | David the Builder Kutaisi International Airport (UGKO) |
Arrival
| Time | 2026-04-28 13:06 |
|---|---|
| Airport | Alexander Kartveli Batumi International Airport (UGSB) |
| Time | Latitude | Longitude | Altitude | Speed | Heading |
|---|---|---|---|---|---|
| 2026-04-28 12:13 | 42.18107 | 42.46817 | 135 ft | 0 kts | 69° |
| 2026-04-28 12:28 | 42.18107 | 42.46818 | 135 ft | 1 kts | 69° |
| 2026-04-28 12:28 | 42.18101 | 42.46860 | 135 ft | 9 kts | 153° |
| 2026-04-28 12:29 | 42.17897 | 42.46997 | 135 ft | 15 kts | 109° |
| 2026-04-28 12:29 | 42.17910 | 42.47154 | 135 ft | 19 kts | 80° |
| 2026-04-28 12:29 | 42.17901 | 42.47311 | 135 ft | 16 kts | 125° |
| 2026-04-28 12:30 | 42.17801 | 42.47387 | 135 ft | 19 kts | 158° |
| 2026-04-28 12:30 | 42.17690 | 42.47447 | 134 ft | 13 kts | 159° |
| 2026-04-28 12:30 | 42.17669 | 42.47457 | 134 ft | 0 kts | 159° |
| 2026-04-28 12:32 | 42.17632 | 42.47477 | 133 ft | 16 kts | 154° |
| 2026-04-28 12:33 | 42.17602 | 42.47625 | 133 ft | 21 kts | 79° |
| 2026-04-28 12:33 | 42.17628 | 42.47842 | 135 ft | 26 kts | 80° |
| 2026-04-28 12:33 | 42.17658 | 42.48082 | 136 ft | 24 kts | 81° |
| 2026-04-28 12:33 | 42.17684 | 42.48295 | 137 ft | 23 kts | 79° |
| 2026-04-28 12:34 | 42.17712 | 42.48507 | 138 ft | 23 kts | 81° |
| 2026-04-28 12:34 | 42.17738 | 42.48712 | 136 ft | 22 kts | 79° |
| 2026-04-28 12:34 | 42.17762 | 42.48919 | 134 ft | 22 kts | 83° |
| 2026-04-28 12:34 | 42.17788 | 42.49106 | 134 ft | 20 kts | 83° |
| 2026-04-28 12:35 | 42.17812 | 42.49310 | 132 ft | 24 kts | 79° |
| 2026-04-28 12:35 | 42.17839 | 42.49519 | 133 ft | 21 kts | 79° |
| 2026-04-28 12:35 | 42.17869 | 42.49661 | 134 ft | 13 kts | 52° |
| 2026-04-28 12:35 | 42.17882 | 42.49743 | 135 ft | 6 kts | 156° |
| 2026-04-28 12:36 | 42.17863 | 42.49721 | 134 ft | 0 kts | 260° |
| 2026-04-28 12:37 | 42.17826 | 42.49424 | 133 ft | 64 kts | 260° |
| 2026-04-28 12:37 | 42.17766 | 42.48943 | 149 ft | 90 kts | 260° |
| 2026-04-28 12:37 | 42.17655 | 42.48077 | 422 ft | 95 kts | 262° |
| 2026-04-28 12:37 | 42.17541 | 42.47195 | 718 ft | 97 kts | 263° |
| 2026-04-28 12:38 | 42.17419 | 42.46289 | 962 ft | 100 kts | 262° |
| 2026-04-28 12:38 | 42.17317 | 42.45375 | 1319 ft | 97 kts | 263° |
| 2026-04-28 12:38 | 42.17231 | 42.44460 | 1677 ft | 98 kts | 261° |
| 2026-04-28 12:38 | 42.17094 | 42.43571 | 2042 ft | 95 kts | 259° |
| 2026-04-28 12:39 | 42.16943 | 42.42707 | 2426 ft | 95 kts | 260° |
| 2026-04-28 12:39 | 42.16787 | 42.41846 | 2766 ft | 95 kts | 259° |
| 2026-04-28 12:39 | 42.16637 | 42.40962 | 3070 ft | 100 kts | 261° |
| 2026-04-28 12:39 | 42.16525 | 42.40034 | 3400 ft | 100 kts | 265° |
| 2026-04-28 12:40 | 42.16459 | 42.39095 | 3682 ft | 105 kts | 265° |
| 2026-04-28 12:40 | 42.16373 | 42.38103 | 3973 ft | 108 kts | 262° |
| 2026-04-28 12:40 | 42.16265 | 42.37080 | 4260 ft | 112 kts | 261° |
| 2026-04-28 12:40 | 42.16143 | 42.36023 | 4577 ft | 115 kts | 259° |
| 2026-04-28 12:41 | 42.16010 | 42.34948 | 4885 ft | 117 kts | 259° |
| 2026-04-28 12:41 | 42.15873 | 42.33855 | 5196 ft | 119 kts | 258° |
| 2026-04-28 12:41 | 42.15734 | 42.32745 | 5502 ft | 120 kts | 258° |
| 2026-04-28 12:41 | 42.15594 | 42.31635 | 5832 ft | 120 kts | 258° |
| 2026-04-28 12:42 | 42.15453 | 42.30528 | 6136 ft | 122 kts | 258° |
| 2026-04-28 12:42 | 42.15310 | 42.29402 | 6462 ft | 122 kts | 259° |
| 2026-04-28 12:42 | 42.15167 | 42.28269 | 6772 ft | 123 kts | 258° |
| 2026-04-28 12:42 | 42.15021 | 42.27134 | 7086 ft | 123 kts | 258° |
| 2026-04-28 12:43 | 42.14877 | 42.25999 | 7392 ft | 123 kts | 258° |
| 2026-04-28 12:43 | 42.14733 | 42.24874 | 7727 ft | 121 kts | 259° |
| 2026-04-28 12:43 | 42.14591 | 42.23759 | 8040 ft | 120 kts | 259° |
| 2026-04-28 12:43 | 42.14450 | 42.22652 | 8369 ft | 119 kts | 259° |
| 2026-04-28 12:44 | 42.14309 | 42.21550 | 8697 ft | 119 kts | 259° |
| 2026-04-28 12:44 | 42.14168 | 42.20453 | 9022 ft | 119 kts | 259° |
| 2026-04-28 12:44 | 42.14028 | 42.19360 | 9356 ft | 118 kts | 260° |
| 2026-04-28 12:44 | 42.13730 | 42.18357 | 9702 ft | 116 kts | 239° |
| 2026-04-28 12:45 | 42.13316 | 42.17413 | 10000 ft | 119 kts | 239° |
| 2026-04-28 12:45 | 42.12853 | 42.16365 | 10050 ft | 139 kts | 239° |
| 2026-04-28 12:45 | 42.12330 | 42.15177 | 10066 ft | 155 kts | 239° |
| 2026-04-28 12:45 | 42.11757 | 42.13876 | 10065 ft | 166 kts | 239° |
| 2026-04-28 12:46 | 42.11151 | 42.12508 | 10065 ft | 173 kts | 239° |
| 2026-04-28 12:46 | 42.10533 | 42.11108 | 10063 ft | 172 kts | 239° |
| 2026-04-28 12:46 | 42.09927 | 42.09735 | 10062 ft | 168 kts | 238° |
| 2026-04-28 12:46 | 42.09335 | 42.08394 | 10073 ft | 165 kts | 238° |
| 2026-04-28 12:47 | 42.08750 | 42.07071 | 10072 ft | 164 kts | 239° |
| 2026-04-28 12:47 | 42.08169 | 42.05756 | 10072 ft | 163 kts | 239° |
| 2026-04-28 12:47 | 42.07598 | 42.04465 | 10072 ft | 162 kts | 238° |
| 2026-04-28 12:47 | 42.07022 | 42.03162 | 10073 ft | 162 kts | 238° |
| 2026-04-28 12:48 | 42.06447 | 42.01864 | 10068 ft | 161 kts | 238° |
| 2026-04-28 12:48 | 42.05873 | 42.00567 | 10069 ft | 161 kts | 238° |
| 2026-04-28 12:48 | 42.05300 | 41.99272 | 10069 ft | 161 kts | 238° |
| 2026-04-28 12:48 | 42.04728 | 41.97982 | 10083 ft | 160 kts | 238° |
| 2026-04-28 12:49 | 42.04158 | 41.96695 | 10083 ft | 160 kts | 238° |
| 2026-04-28 12:49 | 42.03591 | 41.95416 | 10075 ft | 158 kts | 239° |
| 2026-04-28 12:49 | 42.03029 | 41.94148 | 9942 ft | 159 kts | 239° |
| 2026-04-28 12:49 | 42.02458 | 41.92859 | 9759 ft | 162 kts | 238° |
| 2026-04-28 12:50 | 42.01878 | 41.91554 | 9578 ft | 163 kts | 238° |
| 2026-04-28 12:50 | 42.01295 | 41.90242 | 9398 ft | 163 kts | 238° |
| 2026-04-28 12:50 | 42.00712 | 41.88928 | 9218 ft | 164 kts | 238° |
| 2026-04-28 12:50 | 42.00124 | 41.87608 | 9025 ft | 165 kts | 238° |
| 2026-04-28 12:51 | 41.99520 | 41.86250 | 8724 ft | 170 kts | 238° |
| 2026-04-28 12:51 | 41.98917 | 41.84894 | 8529 ft | 168 kts | 238° |
| 2026-04-28 12:51 | 41.98322 | 41.83558 | 8349 ft | 166 kts | 238° |
| 2026-04-28 12:51 | 41.97733 | 41.82233 | 8169 ft | 164 kts | 238° |
| 2026-04-28 12:52 | 41.97147 | 41.80920 | 7991 ft | 163 kts | 238° |
| 2026-04-28 12:52 | 41.96537 | 41.79636 | 7811 ft | 162 kts | 233° |
| 2026-04-28 12:52 | 41.95904 | 41.78408 | 7645 ft | 162 kts | 234° |
| 2026-04-28 12:52 | 41.95268 | 41.77157 | 7470 ft | 162 kts | 234° |
| 2026-04-28 12:53 | 41.94630 | 41.75912 | 7285 ft | 161 kts | 234° |
| 2026-04-28 12:53 | 41.93994 | 41.74676 | 7110 ft | 161 kts | 233° |
| 2026-04-28 12:53 | 41.93357 | 41.73441 | 6935 ft | 161 kts | 233° |
| 2026-04-28 12:53 | 41.92721 | 41.72208 | 6763 ft | 160 kts | 233° |
| 2026-04-28 12:54 | 41.92086 | 41.70977 | 6587 ft | 160 kts | 233° |
| 2026-04-28 12:54 | 41.91451 | 41.69746 | 6405 ft | 160 kts | 233° |
| 2026-04-28 12:54 | 41.90819 | 41.68521 | 6229 ft | 159 kts | 233° |
| 2026-04-28 12:54 | 41.90189 | 41.67302 | 6061 ft | 159 kts | 233° |
| 2026-04-28 12:55 | 41.89561 | 41.66086 | 5887 ft | 158 kts | 234° |
| 2026-04-28 12:55 | 41.88934 | 41.64872 | 5713 ft | 158 kts | 233° |
| 2026-04-28 12:55 | 41.88307 | 41.63664 | 5533 ft | 158 kts | 233° |
| 2026-04-28 12:55 | 41.87678 | 41.62449 | 5367 ft | 158 kts | 234° |
| 2026-04-28 12:56 | 41.87051 | 41.61232 | 5191 ft | 158 kts | 234° |
| 2026-04-28 12:56 | 41.86432 | 41.60035 | 5016 ft | 158 kts | 234° |
| 2026-04-28 12:56 | 41.85804 | 41.58822 | 4843 ft | 158 kts | 234° |
| 2026-04-28 12:56 | 41.85178 | 41.57615 | 4670 ft | 157 kts | 234° |
| 2026-04-28 12:57 | 41.84553 | 41.56410 | 4490 ft | 157 kts | 234° |
| 2026-04-28 12:57 | 41.83932 | 41.55213 | 4324 ft | 156 kts | 234° |
| 2026-04-28 12:57 | 41.83313 | 41.54018 | 4150 ft | 156 kts | 234° |
| 2026-04-28 12:57 | 41.82703 | 41.52844 | 3984 ft | 155 kts | 234° |
| 2026-04-28 12:58 | 41.82084 | 41.51650 | 3810 ft | 156 kts | 235° |
| 2026-04-28 12:58 | 41.81465 | 41.50459 | 3640 ft | 156 kts | 235° |
| 2026-04-28 12:58 | 41.80843 | 41.49263 | 3471 ft | 155 kts | 235° |
| 2026-04-28 12:58 | 41.80228 | 41.48078 | 3299 ft | 155 kts | 235° |
| 2026-04-28 12:59 | 41.79493 | 41.47046 | 3130 ft | 152 kts | 221° |
| 2026-04-28 12:59 | 41.78692 | 41.46117 | 2960 ft | 152 kts | 220° |
| 2026-04-28 12:59 | 41.77888 | 41.45213 | 2806 ft | 150 kts | 220° |
| 2026-04-28 12:59 | 41.77087 | 41.44325 | 2621 ft | 149 kts | 220° |
| 2026-04-28 13:00 | 41.76289 | 41.43452 | 2460 ft | 147 kts | 220° |
| 2026-04-28 13:00 | 41.75496 | 41.42602 | 2299 ft | 146 kts | 220° |
| 2026-04-28 13:00 | 41.74685 | 41.41802 | 2139 ft | 145 kts | 204° |
| 2026-04-28 13:00 | 41.73703 | 41.41651 | 1998 ft | 143 kts | 166° |
| 2026-04-28 13:01 | 41.72853 | 41.42226 | 2000 ft | 133 kts | 147° |
| 2026-04-28 13:01 | 41.72123 | 41.42920 | 1990 ft | 126 kts | 133° |
| 2026-04-28 13:01 | 41.71550 | 41.43758 | 1993 ft | 123 kts | 131° |
| 2026-04-28 13:01 | 41.70974 | 41.44629 | 1996 ft | 126 kts | 130° |
| 2026-04-28 13:02 | 41.70386 | 41.45530 | 1995 ft | 131 kts | 130° |
| 2026-04-28 13:02 | 41.69778 | 41.46455 | 1982 ft | 134 kts | 129° |
| 2026-04-28 13:02 | 41.69172 | 41.47415 | 1989 ft | 136 kts | 129° |
| 2026-04-28 13:02 | 41.68542 | 41.48376 | 1948 ft | 134 kts | 130° |
| 2026-04-28 13:03 | 41.67945 | 41.49261 | 1928 ft | 122 kts | 129° |
| 2026-04-28 13:03 | 41.67411 | 41.50088 | 1847 ft | 116 kts | 129° |
| 2026-04-28 13:03 | 41.66896 | 41.50879 | 1696 ft | 108 kts | 128° |
| 2026-04-28 13:03 | 41.66414 | 41.51634 | 1510 ft | 105 kts | 127° |
| 2026-04-28 13:04 | 41.65948 | 41.52370 | 1354 ft | 103 kts | 128° |
| 2026-04-28 13:04 | 41.65472 | 41.53093 | 1186 ft | 104 kts | 129° |
| 2026-04-28 13:04 | 41.64985 | 41.53813 | 986 ft | 106 kts | 130° |
| 2026-04-28 13:04 | 41.64518 | 41.54548 | 859 ft | 102 kts | 126° |
| 2026-04-28 13:05 | 41.64059 | 41.55277 | 764 ft | 102 kts | 127° |
| 2026-04-28 13:05 | 41.63599 | 41.55999 | 674 ft | 103 kts | 129° |
| 2026-04-28 13:05 | 41.63099 | 41.56728 | 498 ft | 108 kts | 128° |
| 2026-04-28 13:05 | 41.62619 | 41.57484 | 347 ft | 105 kts | 128° |
| 2026-04-28 13:06 | 41.62142 | 41.58195 | 196 ft | 100 kts | 133° |
| 2026-04-28 13:06 | 41.61694 | 41.58892 | 61 ft | 98 kts | 132° |
| 2026-04-28 13:06 | 41.61266 | 41.59554 | 12 ft | 87 kts | 130° |
| 2026-04-28 13:06 | 41.60971 | 41.60013 | 11 ft | 47 kts | 130° |
| 2026-04-28 13:07 | 41.60812 | 41.60259 | 10 ft | 24 kts | 130° |
| 2026-04-28 13:07 | 41.60713 | 41.60412 | 11 ft | 19 kts | 130° |
| 2026-04-28 13:07 | 41.60630 | 41.60540 | 12 ft | 18 kts | 130° |
| 2026-04-28 13:07 | 41.60551 | 41.60665 | 12 ft | 17 kts | 134° |
| 2026-04-28 13:08 | 41.60489 | 41.60773 | 13 ft | 11 kts | 101° |
| 2026-04-28 13:08 | 41.60506 | 41.60886 | 11 ft | 14 kts | 75° |
| 2026-04-28 13:08 | 41.60523 | 41.60974 | 10 ft | 8 kts | 72° |
| 2026-04-28 13:08 | 41.60558 | 41.61004 | 10 ft | 8 kts | 332° |
| 2026-04-28 13:09 | 41.60596 | 41.60957 | 10 ft | 7 kts | 318° |
| 2026-04-28 13:09 | 41.60637 | 41.60901 | 10 ft | 7 kts | 300° |
| 2026-04-28 13:09 | 41.60668 | 41.60825 | 10 ft | 8 kts | 314° |
| 2026-04-28 13:09 | 41.60695 | 41.60839 | 10 ft | 6 kts | 116° |
| 2026-04-28 13:10 | 41.60679 | 41.60863 | 10 ft | 0 kts | 133° |